Time;durP1;ratioP1;P1;durP2;ratioP2;P2;SDS_P1;SDS_P2;PMS_P1;PMS_P2;Temp;Humidity;BMP_temperature;BMP_pressure;BME280_temperature;BME280_humidity;BME280_pressure;Samples;Min_cycle;Max_cycle;Signal;HPM_P1;HPM_P2
2021/04/02 00:00:47;;;;;;;15.80;8.80;;;;;;;;;;5050782;28;20025;-64
2021/04/02 00:03:19;;;;;;;15.05;7.82;;;;;;;;;;5057510;28;20024;-65
2021/04/02 00:05:45;;;;;;;14.25;8.18;;;;;;;;;;5067881;28;20020;-65
2021/04/02 00:08:10;;;;;;;15.07;7.88;;;;;;;;;;5049434;28;20043;-66
2021/04/02 00:10:40;;;;;;;15.15;7.53;;;;;;;;;;5049988;28;20032;-64
2021/04/02 00:13:05;;;;;;;16.58;8.18;;;;;;;;;;5052069;28;20025;-64
2021/04/02 00:15:31;;;;;;;22.15;8.93;;;;;;;;;;5055751;28;20039;-65
2021/04/02 00:17:56;;;;;;;15.18;8.27;;;;;;;;;;5046637;28;20420;-64
2021/04/02 00:20:21;;;;;;;16.13;8.30;;;;;;;;;;5066354;28;20103;-65
2021/04/02 00:22:47;;;;;;;14.07;8.15;;;;;;;;;;5050453;28;20020;-66
2021/04/02 00:25:13;;;;;;;19.92;7.80;;;;;;;;;;5050222;28;20021;-65
2021/04/02 00:27:38;;;;;;;15.60;8.10;;;;;;;;;;5067143;22;20072;-84
2021/04/02 00:30:26;;;;;;;18.48;9.48;;;;;;;;;;5027976;28;20031;-84
2021/04/02 00:32:54;;;;;;;16.33;7.93;;;;;;;;;;5053756;28;20078;-83
2021/04/02 00:35:19;;;;;;;15.25;7.60;;;;;;;;;;5032263;28;20098;-84
2021/04/02 00:37:45;;;;;;;16.05;8.70;;;;;;;;;;5031648;28;20032;-83
2021/04/02 00:40:13;;;;;;;18.38;8.77;;;;;;;;;;5049360;28;20021;-83
2021/04/02 00:42:38;;;;;;;16.35;9.52;;;;;;;;;;5028224;28;20028;-83
2021/04/02 00:45:04;;;;;;;25.55;9.18;;;;;;;;;;5048458;28;20017;-84
2021/04/02 00:47:29;;;;;;;28.17;9.65;;;;;;;;;;5049912;28;20535;-84
2021/04/02 00:49:55;;;;;;;23.65;9.23;;;;;;;;;;5031999;28;20052;-83
2021/04/02 00:52:20;;;;;;;18.67;10.45;;;;;;;;;;5050457;28;20064;-83
2021/04/02 00:54:45;;;;;;;17.60;8.82;;;;;;;;;;5050216;28;20032;-84
2021/04/02 00:57:10;;;;;;;25.25;10.00;;;;;;;;;;5049944;28;20387;-83
2021/04/02 00:59:36;;;;;;;20.38;9.45;;;;;;;;;;5049485;28;20048;-84
2021/04/02 01:02:01;;;;;;;15.60;8.45;;;;;;;;;;5035316;28;20021;-84
2021/04/02 01:04:26;;;;;;;22.95;8.98;;;;;;;;;;5032122;28;20416;-83
2021/04/02 01:06:51;;;;;;;20.42;10.07;;;;;;;;;;5050959;28;20496;-83
2021/04/02 01:09:16;;;;;;;23.10;9.82;;;;;;;;;;5048915;28;20060;-83
2021/04/02 01:11:43;;;;;;;35.33;10.05;;;;;;;;;;5049935;28;20024;-83
2021/04/02 01:14:08;;;;;;;27.70;11.60;;;;;;;;;;5030354;28;20029;-84
2021/04/02 01:16:34;;;;;;;21.65;9.60;;;;;;;;;;5047945;28;20484;-83
2021/04/02 01:18:59;;;;;;;27.70;10.93;;;;;;;;;;5048851;28;20024;-83
2021/04/02 01:21:28;;;;;;;25.03;10.30;;;;;;;;;;5048161;28;20404;-83
2021/04/02 01:23:53;;;;;;;16.95;9.85;;;;;;;;;;5049074;28;20343;-83
2021/04/02 01:26:37;;;;;;;28.88;11.02;;;;;;;;;;5030243;28;20107;-83
2021/04/02 01:29:08;;;;;;;22.75;9.82;;;;;;;;;;5028351;28;20072;-84
2021/04/02 01:31:36;;;;;;;23.45;10.10;;;;;;;;;;5034813;28;20044;-83
2021/04/02 01:34:01;;;;;;;20.52;10.43;;;;;;;;;;5052951;28;20107;-83
2021/04/02 01:36:27;;;;;;;20.63;10.30;;;;;;;;;;5035557;28;20051;-83
2021/04/02 01:38:53;;;;;;;21.63;10.68;;;;;;;;;;5052637;28;20021;-83
2021/04/02 01:41:20;;;;;;;20.75;10.80;;;;;;;;;;5051612;28;20448;-83
2021/04/02 01:43:47;;;;;;;16.55;9.85;;;;;;;;;;5052206;28;20025;-84
2021/04/02 01:46:14;;;;;;;27.90;11.25;;;;;;;;;;5052341;28;20025;-83
2021/04/02 01:48:41;;;;;;;23.38;11.27;;;;;;;;;;5051407;28;20024;-84
2021/04/02 01:51:07;;;;;;;32.53;12.40;;;;;;;;;;5033693;28;20109;-84
2021/04/02 01:53:34;;;;;;;45.40;12.18;;;;;;;;;;5051978;28;20095;-84
2021/04/02 01:56:00;;;;;;;25.95;11.43;;;;;;;;;;5034142;28;20029;-84
2021/04/02 01:58:26;;;;;;;22.13;10.65;;;;;;;;;;5033086;28;20102;-84
2021/04/02 02:00:53;;;;;;;23.60;12.48;;;;;;;;;;5051981;28;20057;-84
2021/04/02 02:03:19;;;;;;;26.67;12.95;;;;;;;;;;5051681;28;20059;-84
2021/04/02 02:05:46;;;;;;;22.00;11.88;;;;;;;;;;5052227;28;20796;-83
2021/04/02 02:08:15;;;;;;;26.48;12.98;;;;;;;;;;5034136;28;20488;-84
2021/04/02 02:10:42;;;;;;;28.33;12.88;;;;;;;;;;5034239;28;20562;-84
2021/04/02 02:13:07;;;;;;;30.88;13.82;;;;;;;;;;5034199;28;20548;-83
2021/04/02 02:15:36;;;;;;;26.67;13.75;;;;;;;;;;5052666;28;20058;-84
2021/04/02 02:18:04;;;;;;;30.02;14.32;;;;;;;;;;5053084;28;20021;-84
2021/04/02 02:20:29;;;;;;;26.98;14.70;;;;;;;;;;5052866;28;20017;-84
2021/04/02 02:22:55;;;;;;;25.13;13.48;;;;;;;;;;5033694;28;20549;-83
2021/04/02 02:25:22;;;;;;;25.70;15.55;;;;;;;;;;5034326;28;20073;-84
2021/04/02 02:27:47;;;;;;;27.65;15.30;;;;;;;;;;5051533;28;20072;-83
2021/04/02 02:30:20;;;;;;;27.25;15.07;;;;;;;;;;5033967;28;20059;-84
2021/04/02 02:32:45;;;;;;;27.92;14.20;;;;;;;;;;5044556;28;20075;-84
2021/04/02 02:35:11;;;;;;;28.35;14.27;;;;;;;;;;5051980;28;20413;-84
2021/04/02 02:37:38;;;;;;;24.58;14.85;;;;;;;;;;5031266;28;20498;-84
2021/04/02 02:40:07;;;;;;;25.85;14.63;;;;;;;;;;5045482;28;20070;-84
2021/04/02 02:42:33;;;;;;;29.88;14.93;;;;;;;;;;5050245;28;20396;-83
2021/04/02 02:44:58;;;;;;;29.30;15.68;;;;;;;;;;5050991;28;20032;-83
2021/04/02 02:47:23;;;;;;;32.58;16.05;;;;;;;;;;5031886;28;20024;-83
2021/04/02 02:49:49;;;;;;;28.48;15.50;;;;;;;;;;5050672;28;20024;-83
2021/04/02 02:52:15;;;;;;;27.85;15.00;;;;;;;;;;5042695;28;20435;-84
2021/04/02 02:54:40;;;;;;;27.55;16.25;;;;;;;;;;5045681;28;20021;-84
2021/04/02 02:57:07;;;;;;;31.02;16.30;;;;;;;;;;5034005;28;20031;-83
2021/04/02 02:59:32;;;;;;;31.25;16.70;;;;;;;;;;5050040;28;20067;-83
2021/04/02 03:01:58;;;;;;;30.10;16.98;;;;;;;;;;5032500;28;20029;-83
2021/04/02 03:04:25;;;;;;;29.88;17.35;;;;;;;;;;5036791;28;20021;-83
2021/04/02 03:06:51;;;;;;;27.23;16.20;;;;;;;;;;5032130;28;20029;-83
2021/04/02 03:09:17;;;;;;;31.45;17.88;;;;;;;;;;5050074;28;20035;-84
2021/04/02 03:11:43;;;;;;;34.35;16.52;;;;;;;;;;5050961;28;20021;-83
2021/04/02 03:14:09;;;;;;;27.38;16.05;;;;;;;;;;5050126;28;20112;-83
2021/04/02 03:16:40;;;;;;;36.58;17.98;;;;;;;;;;5049885;28;20032;-83
2021/04/02 03:19:06;;;;;;;30.00;16.15;;;;;;;;;;5033034;28;20025;-83
2021/04/02 03:21:32;;;;;;;30.50;17.02;;;;;;;;;;5027436;28;20105;-83
2021/04/02 03:23:58;;;;;;;26.50;16.05;;;;;;;;;;5032913;28;20103;-84
2021/04/02 03:26:23;;;;;;;31.25;17.20;;;;;;;;;;5049920;28;20017;-83
2021/04/02 03:28:50;;;;;;;29.30;15.68;;;;;;;;;;5015239;28;20025;-84
2021/04/02 03:31:16;;;;;;;31.58;15.88;;;;;;;;;;5044838;28;20028;-84
2021/04/02 03:33:44;;;;;;;33.53;16.42;;;;;;;;;;5051642;28;20028;-84
2021/04/02 03:36:12;;;;;;;32.85;16.58;;;;;;;;;;5041973;28;20017;-84
2021/04/02 03:38:39;;;;;;;30.05;15.93;;;;;;;;;;5050529;28;20021;-84
2021/04/02 03:41:07;;;;;;;31.67;15.73;;;;;;;;;;5049971;28;20017;-84
2021/04/02 03:43:33;;;;;;;36.03;15.13;;;;;;;;;;5050721;28;20092;-83
2021/04/02 03:45:59;;;;;;;25.60;14.70;;;;;;;;;;5050631;28;20173;-84
2021/04/02 03:48:25;;;;;;;33.75;15.60;;;;;;;;;;5032320;28;20436;-84
2021/04/02 03:50:56;;;;;;;28.00;14.65;;;;;;;;;;5032267;28;20114;-84
2021/04/02 03:53:24;;;;;;;31.83;15.93;;;;;;;;;;5031540;28;20026;-83
2021/04/02 03:55:51;;;;;;;23.30;13.02;;;;;;;;;;5031094;28;20107;-84
2021/04/02 03:58:17;;;;;;;24.77;14.07;;;;;;;;;;5030895;28;20025;-84
2021/04/02 04:00:46;;;;;;;25.27;14.10;;;;;;;;;;5032416;28;20098;-83
2021/04/02 04:03:12;;;;;;;29.00;13.75;;;;;;;;;;5049613;28;20497;-83
2021/04/02 04:05:38;;;;;;;25.17;12.90;;;;;;;;;;5031709;28;20496;-84
2021/04/02 04:08:07;;;;;;;29.70;13.18;;;;;;;;;;5028284;28;20021;-83
2021/04/02 04:10:32;;;;;;;25.48;13.68;;;;;;;;;;5022771;28;20104;-84
2021/04/02 04:12:59;;;;;;;33.08;14.55;;;;;;;;;;5047636;28;20103;-84
2021/04/02 04:15:26;;;;;;;29.58;15.05;;;;;;;;;;5030178;28;20687;-83
2021/04/02 04:17:51;;;;;;;29.13;14.35;;;;;;;;;;5030446;28;20025;-84
2021/04/02 04:20:17;;;;;;;31.13;14.60;;;;;;;;;;5048977;28;20465;-84
2021/04/02 04:22:43;;;;;;;27.80;14.00;;;;;;;;;;5031697;28;20021;-84
2021/04/02 04:25:09;;;;;;;28.63;13.52;;;;;;;;;;5044812;28;20082;-84
2021/04/02 04:27:35;;;;;;;32.53;14.77;;;;;;;;;;5049645;28;20043;-83
2021/04/02 04:30:01;;;;;;;33.20;14.23;;;;;;;;;;5029731;28;20610;-83
2021/04/02 04:32:27;;;;;;;29.02;13.98;;;;;;;;;;5050992;28;20028;-84
2021/04/02 04:34:52;;;;;;;28.73;14.35;;;;;;;;;;5035794;28;20404;-84
2021/04/02 04:37:18;;;;;;;26.83;13.20;;;;;;;;;;5033079;28;20025;-84
2021/04/02 04:39:45;;;;;;;33.22;14.70;;;;;;;;;;5047762;28;20953;-85
2021/04/02 04:42:17;;;;;;;32.40;13.32;;;;;;;;;;5047921;28;20017;-84
2021/04/02 04:44:44;;;;;;;32.58;13.77;;;;;;;;;;5048918;28;20024;-84
2021/04/02 04:47:09;;;;;;;24.70;12.93;;;;;;;;;;5047681;28;20078;-83
2021/04/02 04:49:35;;;;;;;32.38;13.00;;;;;;;;;;5036252;28;20033;-84
2021/04/02 04:52:01;;;;;;;28.00;13.77;;;;;;;;;;5030277;28;20036;-83
2021/04/02 04:54:28;;;;;;;34.17;13.73;;;;;;;;;;5046832;28;20028;-83
2021/04/02 04:56:55;;;;;;;28.35;13.10;;;;;;;;;;5046785;28;20087;-83
2021/04/02 04:59:21;;;;;;;24.90;13.70;;;;;;;;;;5029217;28;20021;-83
2021/04/02 05:01:48;;;;;;;42.70;14.15;;;;;;;;;;5029669;28;20021;-84
2021/04/02 05:04:14;;;;;;;25.58;13.02;;;;;;;;;;5043520;28;20021;-83
2021/04/02 05:06:40;;;;;;;31.60;13.65;;;;;;;;;;5030075;28;20020;-83
2021/04/02 05:09:06;;;;;;;25.85;12.75;;;;;;;;;;5047011;28;20017;-83
2021/04/02 05:11:33;;;;;;;29.00;15.10;;;;;;;;;;5028712;28;20083;-83
2021/04/02 05:13:59;;;;;;;30.95;13.73;;;;;;;;;;5048028;28;20032;-84
2021/04/02 05:16:25;;;;;;;24.70;13.05;;;;;;;;;;5042846;28;20024;-83
2021/04/02 05:18:52;;;;;;;27.95;13.07;;;;;;;;;;5026825;28;20115;-84
2021/04/02 05:21:17;;;;;;;28.38;13.70;;;;;;;;;;5048001;28;20118;-83
2021/04/02 05:23:42;;;;;;;27.70;13.75;;;;;;;;;;5048922;28;20465;-83
2021/04/02 05:26:12;;;;;;;28.67;13.30;;;;;;;;;;5032013;28;20021;-83
2021/04/02 05:28:37;;;;;;;33.78;13.98;;;;;;;;;;5046783;28;20021;-83
2021/04/02 05:31:02;;;;;;;40.42;13.57;;;;;;;;;;5028600;28;20369;-83
2021/04/02 05:33:27;;;;;;;41.65;15.15;;;;;;;;;;5045883;28;20025;-83
2021/04/02 05:35:52;;;;;;;35.00;14.60;;;;;;;;;;5027826;28;20032;-83
2021/04/02 05:38:18;;;;;;;36.90;14.50;;;;;;;;;;5047916;28;20024;-83
2021/04/02 05:40:43;;;;;;;30.23;12.57;;;;;;;;;;5024220;28;20124;-83
2021/04/02 05:43:08;;;;;;;32.17;13.32;;;;;;;;;;5029457;28;20108;-83
2021/04/02 05:45:35;;;;;;;33.53;14.37;;;;;;;;;;5043689;28;20111;-83
2021/04/02 05:48:01;;;;;;;30.10;13.55;;;;;;;;;;5024401;28;20304;-84
2021/04/02 05:50:29;;;;;;;29.75;13.85;;;;;;;;;;5014868;28;20025;-84
2021/04/02 05:52:56;;;;;;;28.42;13.98;;;;;;;;;;5047538;28;20029;-84
2021/04/02 05:55:22;;;;;;;27.35;13.82;;;;;;;;;;5029459;28;20025;-83
2021/04/02 05:57:47;;;;;;;26.42;13.15;;;;;;;;;;5029518;28;20051;-83
2021/04/02 06:00:13;;;;;;;32.08;12.60;;;;;;;;;;5029157;28;20017;-83
2021/04/02 06:02:39;;;;;;;27.13;13.02;;;;;;;;;;5032976;28;20052;-84
2021/04/02 06:05:05;;;;;;;21.08;12.57;;;;;;;;;;5030363;28;20061;-84
2021/04/02 06:07:30;;;;;;;30.80;14.25;;;;;;;;;;5028603;28;20692;-83
2021/04/02 06:09:55;;;;;;;30.65;13.68;;;;;;;;;;5047316;28;20025;-84
2021/04/02 06:12:25;;;;;;;37.28;14.55;;;;;;;;;;5048397;28;20027;-84
2021/04/02 06:14:50;;;;;;;27.08;13.50;;;;;;;;;;5072337;22;20487;-66
2021/04/02 06:17:15;;;;;;;30.17;13.80;;;;;;;;;;5069301;28;20024;-66
2021/04/02 06:19:41;;;;;;;27.25;13.32;;;;;;;;;;5037132;28;20462;-67
2021/04/02 06:22:06;;;;;;;27.15;13.77;;;;;;;;;;5049057;28;20189;-67
2021/04/02 06:24:34;;;;;;;34.75;14.15;;;;;;;;;;5035306;28;20024;-66
2021/04/02 06:27:00;;;;;;;32.42;14.38;;;;;;;;;;5079188;22;20075;-65
2021/04/02 06:29:26;;;;;;;31.23;15.50;;;;;;;;;;5062663;28;20057;-65
2021/04/02 06:31:51;;;;;;;27.65;16.13;;;;;;;;;;5072783;28;20020;-65
2021/04/02 06:34:16;;;;;;;29.27;15.80;;;;;;;;;;5072454;28;20016;-65
2021/04/02 06:36:45;;;;;;;34.08;15.52;;;;;;;;;;5072085;28;20020;-65
2021/04/02 06:39:10;;;;;;;30.90;16.17;;;;;;;;;;5073728;28;20028;-65
2021/04/02 06:41:36;;;;;;;33.55;14.98;;;;;;;;;;5067116;28;20491;-65
2021/04/02 06:44:03;;;;;;;39.33;15.90;;;;;;;;;;5070343;28;20039;-65
2021/04/02 06:46:28;;;;;;;34.47;16.02;;;;;;;;;;5070146;28;20664;-65
2021/04/02 06:48:54;;;;;;;38.00;15.68;;;;;;;;;;5069585;28;20032;-65
2021/04/02 06:51:20;;;;;;;39.83;17.83;;;;;;;;;;5069997;28;20028;-65
2021/04/02 06:53:47;;;;;;;46.78;19.42;;;;;;;;;;5058586;28;20083;-65
2021/04/02 06:56:13;;;;;;;41.92;18.45;;;;;;;;;;5066771;28;20552;-65
2021/04/02 06:58:39;;;;;;;34.83;16.58;;;;;;;;;;5070684;28;20013;-65
2021/04/02 07:01:04;;;;;;;42.38;19.48;;;;;;;;;;5068777;28;20024;-65
2021/04/02 07:03:33;;;;;;;48.17;20.27;;;;;;;;;;5068173;28;20043;-65
2021/04/02 07:06:00;;;;;;;45.97;19.13;;;;;;;;;;5067049;28;20490;-65
2021/04/02 07:08:25;;;;;;;50.22;20.92;;;;;;;;;;5065450;28;20025;-65
2021/04/02 07:10:51;;;;;;;50.63;21.05;;;;;;;;;;5066206;28;20384;-65
2021/04/02 07:13:16;;;;;;;45.10;19.17;;;;;;;;;;5064493;28;20020;-66
2021/04/02 07:15:42;;;;;;;51.65;18.77;;;;;;;;;;5073980;28;20085;-65
2021/04/02 07:18:08;;;;;;;50.00;19.30;;;;;;;;;;5071164;28;20039;-65
2021/04/02 07:20:34;;;;;;;51.22;20.50;;;;;;;;;;5069140;28;20023;-65
2021/04/02 07:22:59;;;;;;;36.30;20.42;;;;;;;;;;5052988;28;20033;-65
2021/04/02 07:25:25;;;;;;;39.00;18.70;;;;;;;;;;5067069;28;20028;-65
2021/04/02 07:27:51;;;;;;;39.95;18.92;;;;;;;;;;5067369;28;20044;-65
2021/04/02 07:30:17;;;;;;;41.08;19.00;;;;;;;;;;5058250;28;20050;-65
2021/04/02 07:32:42;;;;;;;39.45;18.30;;;;;;;;;;5062644;28;20042;-65
2021/04/02 07:35:14;;;;;;;35.00;16.15;;;;;;;;;;5070197;28;20079;-65
2021/04/02 07:37:39;;;;;;;38.75;15.70;;;;;;;;;;5072798;28;20107;-65
2021/04/02 07:40:08;;;;;;;39.65;15.45;;;;;;;;;;5062974;28;20573;-64
2021/04/02 07:42:33;;;;;;;28.92;15.18;;;;;;;;;;5065988;28;20103;-65
2021/04/02 07:44:58;;;;;;;31.90;15.13;;;;;;;;;;5064881;28;20040;-65
2021/04/02 07:47:24;;;;;;;28.13;13.68;;;;;;;;;;5056124;28;20785;-65
2021/04/02 07:49:49;;;;;;;27.92;13.65;;;;;;;;;;5068429;28;20051;-66
2021/04/02 07:52:14;;;;;;;28.10;14.43;;;;;;;;;;5067102;28;20051;-65
2021/04/02 07:54:41;;;;;;;29.98;14.65;;;;;;;;;;5067971;28;20133;-66
2021/04/02 07:57:09;;;;;;;24.67;12.82;;;;;;;;;;5065946;28;20562;-66
2021/04/02 07:59:34;;;;;;;22.60;12.13;;;;;;;;;;5044132;28;20079;-65
2021/04/02 08:02:03;;;;;;;26.67;12.48;;;;;;;;;;5064330;28;20025;-69
2021/04/02 08:04:37;;;;;;;26.17;13.18;;;;;;;;;;5061418;28;20020;-65
2021/04/02 08:07:03;;;;;;;31.40;15.00;;;;;;;;;;5058433;28;20082;-66
2021/04/02 08:09:29;;;;;;;26.58;12.13;;;;;;;;;;5062641;28;20111;-66
2021/04/02 08:11:57;;;;;;;26.90;11.93;;;;;;;;;;5066711;28;20111;-66
2021/04/02 08:14:35;;;;;;;25.40;10.63;;;;;;;;;;5068413;28;20472;-66
2021/04/02 08:17:05;;;;;;;25.02;10.93;;;;;;;;;;5068401;28;20388;-66
2021/04/02 08:19:32;;;;;;;21.48;10.43;;;;;;;;;;5059313;28;20445;-65
2021/04/02 08:21:59;;;;;;;21.00;9.55;;;;;;;;;;5066823;28;20055;-64
2021/04/02 08:24:28;;;;;;;18.65;9.55;;;;;;;;;;5067457;28;20085;-65
2021/04/02 08:26:54;;;;;;;19.90;8.75;;;;;;;;;;5066075;28;20078;-65
2021/04/02 08:29:20;;;;;;;18.55;8.50;;;;;;;;;;5066200;28;20476;-64
2021/04/02 08:31:48;;;;;;;13.15;7.43;;;;;;;;;;5067511;28;20028;-65
2021/04/02 08:34:14;;;;;;;19.52;8.90;;;;;;;;;;5066946;28;20035;-65
2021/04/02 08:36:39;;;;;;;15.38;7.72;;;;;;;;;;5068733;28;20021;-66
2021/04/02 08:39:05;;;;;;;18.45;6.50;;;;;;;;;;5052702;28;20119;-64
2021/04/02 08:41:30;;;;;;;14.13;7.00;;;;;;;;;;5060767;28;20074;-65
2021/04/02 08:43:56;;;;;;;13.27;6.82;;;;;;;;;;5060193;28;20469;-65
2021/04/02 08:46:35;;;;;;;21.75;7.88;;;;;;;;;;5068457;28;20035;-66
2021/04/02 08:49:00;;;;;;;18.65;8.85;;;;;;;;;;5067089;28;20028;-65
2021/04/02 08:51:25;;;;;;;21.85;9.77;;;;;;;;;;5067145;28;20399;-65
2021/04/02 08:53:51;;;;;;;21.15;9.55;;;;;;;;;;5068767;28;20032;-66
2021/04/02 08:56:16;;;;;;;24.50;10.73;;;;;;;;;;5075191;28;20115;-65
2021/04/02 08:58:43;;;;;;;24.02;10.63;;;;;;;;;;5066123;28;20854;-66
2021/04/02 09:01:08;;;;;;;25.02;9.85;;;;;;;;;;5066424;28;20379;-66
2021/04/02 09:03:33;;;;;;;26.27;10.70;;;;;;;;;;5067407;28;20017;-66
2021/04/02 09:05:58;;;;;;;23.83;10.15;;;;;;;;;;5067391;28;20035;-66
2021/04/02 09:08:23;;;;;;;24.10;10.02;;;;;;;;;;5067218;28;20408;-66
2021/04/02 09:10:49;;;;;;;24.33;10.05;;;;;;;;;;5067182;28;20389;-66
2021/04/02 09:13:14;;;;;;;26.85;11.02;;;;;;;;;;5068766;28;20077;-66
2021/04/02 09:15:39;;;;;;;28.40;11.27;;;;;;;;;;5070656;28;20027;-66
2021/04/02 09:18:17;;;;;;;28.85;10.13;;;;;;;;;;5067365;28;20041;-66
2021/04/02 09:20:43;;;;;;;23.65;10.02;;;;;;;;;;5067616;28;20381;-66
2021/04/02 09:23:09;;;;;;;22.73;10.13;;;;;;;;;;5065582;28;20016;-67
2021/04/02 09:25:37;;;;;;;26.90;10.95;;;;;;;;;;5060725;28;20020;-66
2021/04/02 09:28:03;;;;;;;25.60;11.80;;;;;;;;;;5066379;28;20029;-66
2021/04/02 09:30:28;;;;;;;31.23;11.52;;;;;;;;;;5062838;28;20043;-67
2021/04/02 09:32:54;;;;;;;23.88;11.07;;;;;;;;;;5067423;28;20029;-65
2021/04/02 09:35:20;;;;;;;26.73;11.88;;;;;;;;;;5054034;28;20070;-64
2021/04/02 09:37:45;;;;;;;32.45;12.57;;;;;;;;;;5066920;28;20027;-67
2021/04/02 09:40:11;;;;;;;27.88;12.23;;;;;;;;;;5067445;28;20020;-65
2021/04/02 09:42:36;;;;;;;22.83;11.85;;;;;;;;;;5067465;28;20029;-65
2021/04/02 09:45:06;;;;;;;29.15;12.35;;;;;;;;;;5066909;28;20031;-64
2021/04/02 09:47:41;;;;;;;30.35;12.60;;;;;;;;;;5067457;28;20024;-66
2021/04/02 09:50:07;;;;;;;30.17;13.02;;;;;;;;;;5068822;28;20124;-64
2021/04/02 09:52:33;;;;;;;24.80;11.25;;;;;;;;;;5070242;28;20032;-64
2021/04/02 09:54:58;;;;;;;28.58;11.15;;;;;;;;;;5073378;28;20024;-64
2021/04/02 09:57:23;;;;;;;23.85;11.15;;;;;;;;;;5076683;28;20111;-66
2021/04/02 09:59:48;;;;;;;36.17;12.70;;;;;;;;;;5069642;28;20058;-65
2021/04/02 10:02:14;;;;;;;26.02;12.30;;;;;;;;;;5071064;28;20286;-65
2021/04/02 10:04:39;;;;;;;27.23;12.05;;;;;;;;;;5071209;28;20044;-65
2021/04/02 10:07:04;;;;;;;24.38;11.93;;;;;;;;;;5070583;28;20037;-66
2021/04/02 10:09:29;;;;;;;24.98;11.18;;;;;;;;;;5070196;28;20032;-66
2021/04/02 10:11:55;;;;;;;27.77;11.63;;;;;;;;;;5068728;28;20036;-67
2021/04/02 10:14:20;;;;;;;20.65;10.68;;;;;;;;;;5080554;28;20480;-66
2021/04/02 10:16:46;;;;;;;18.08;9.15;;;;;;;;;;5075689;28;20023;-66
2021/04/02 10:19:11;;;;;;;25.33;9.50;;;;;;;;;;5073314;28;20117;-65
2021/04/02 10:21:36;;;;;;;14.07;7.15;;;;;;;;;;5074958;28;20024;-67
2021/04/02 10:24:01;;;;;;;12.85;6.68;;;;;;;;;;5070129;28;20021;-65
2021/04/02 10:26:27;;;;;;;12.52;6.25;;;;;;;;;;5062292;28;20388;-65
2021/04/02 10:28:53;;;;;;;12.60;6.95;;;;;;;;;;5059701;28;20030;-65
2021/04/02 10:31:18;;;;;;;17.65;7.55;;;;;;;;;;5070448;28;20052;-66
2021/04/02 10:33:44;;;;;;;13.23;7.45;;;;;;;;;;5070765;28;20388;-66
2021/04/02 10:36:09;;;;;;;17.95;7.95;;;;;;;;;;5069250;28;20028;-65
2021/04/02 10:38:34;;;;;;;17.77;7.13;;;;;;;;;;5080723;28;20074;-66
2021/04/02 10:41:00;;;;;;;17.30;7.55;;;;;;;;;;5071848;28;20033;-65
2021/04/02 10:43:25;;;;;;;16.48;7.07;;;;;;;;;;5072350;28;20508;-66
2021/04/02 10:45:51;;;;;;;32.85;9.68;;;;;;;;;;5050398;28;20037;-65
2021/04/02 10:48:16;;;;;;;16.70;7.78;;;;;;;;;;5068298;28;20017;-65
2021/04/02 10:50:42;;;;;;;18.27;8.07;;;;;;;;;;5071180;28;20526;-67
2021/04/02 10:53:08;;;;;;;13.50;7.30;;;;;;;;;;5066621;28;20041;-69
2021/04/02 10:55:33;;;;;;;19.65;6.63;;;;;;;;;;5067055;28;20330;-65
2021/04/02 10:57:59;;;;;;;21.40;7.53;;;;;;;;;;5067573;28;20031;-65
2021/04/02 11:00:24;;;;;;;19.20;7.70;;;;;;;;;;5068979;28;20020;-67
2021/04/02 11:02:50;;;;;;;16.25;6.63;;;;;;;;;;5063641;28;20104;-65
2021/04/02 11:05:15;;;;;;;14.95;6.82;;;;;;;;;;5063442;28;20019;-65
2021/04/02 11:07:40;;;;;;;16.85;7.25;;;;;;;;;;5068918;28;20029;-66
2021/04/02 11:10:10;;;;;;;14.52;7.03;;;;;;;;;;5070070;28;20037;-67
2021/04/02 11:12:35;;;;;;;15.50;7.35;;;;;;;;;;5071008;28;20023;-65
2021/04/02 11:15:01;;;;;;;13.63;6.43;;;;;;;;;;5070726;28;20028;-65
2021/04/02 11:17:26;;;;;;;13.38;7.53;;;;;;;;;;5071159;28;20397;-66
2021/04/02 11:19:52;;;;;;;14.82;7.10;;;;;;;;;;5068649;28;20028;-65
2021/04/02 11:22:18;;;;;;;13.43;5.85;;;;;;;;;;5066295;28;20016;-65
2021/04/02 11:24:43;;;;;;;20.30;8.00;;;;;;;;;;5070540;28;20491;-66
2021/04/02 11:27:08;;;;;;;12.40;6.10;;;;;;;;;;5070817;28;20029;-66
2021/04/02 11:29:33;;;;;;;16.30;6.53;;;;;;;;;;5070064;28;20311;-65
2021/04/02 11:31:59;;;;;;;16.75;7.03;;;;;;;;;;5070799;28;20027;-66
2021/04/02 11:34:24;;;;;;;12.93;6.32;;;;;;;;;;5070732;28;20059;-67
2021/04/02 11:36:50;;;;;;;13.50;6.70;;;;;;;;;;5070219;28;20020;-66
2021/04/02 11:39:15;;;;;;;10.63;5.70;;;;;;;;;;5070206;28;20099;-66
2021/04/02 11:41:40;;;;;;;14.13;6.57;;;;;;;;;;5070868;28;20012;-65
2021/04/02 11:44:06;;;;;;;15.37;5.37;;;;;;;;;;5069229;28;20370;-66
2021/04/02 11:46:31;;;;;;;16.25;6.35;;;;;;;;;;5071050;28;20279;-67
2021/04/02 11:48:56;;;;;;;18.58;6.40;;;;;;;;;;5070073;28;20492;-67
2021/04/02 11:51:22;;;;;;;13.55;6.88;;;;;;;;;;5071187;28;20086;-67
2021/04/02 11:53:47;;;;;;;11.45;6.85;;;;;;;;;;5068005;28;20034;-67
2021/04/02 11:56:12;;;;;;;13.35;7.65;;;;;;;;;;5070505;28;20067;-67
2021/04/02 11:58:37;;;;;;;12.15;7.07;;;;;;;;;;5071082;28;20500;-67
2021/04/02 12:01:03;;;;;;;12.45;7.38;;;;;;;;;;5069213;28;20405;-66
2021/04/02 12:03:28;;;;;;;13.50;7.43;;;;;;;;;;5064596;28;20025;-67
2021/04/02 12:05:53;;;;;;;28.17;9.82;;;;;;;;;;5064124;28;20052;-66
2021/04/02 12:08:18;;;;;;;26.88;10.13;;;;;;;;;;5063071;28;20424;-66
2021/04/02 12:10:44;;;;;;;25.90;11.55;;;;;;;;;;5063370;28;20473;-67
2021/04/02 12:13:09;;;;;;;26.08;12.35;;;;;;;;;;5058085;28;20358;-66
2021/04/02 12:15:35;;;;;;;21.73;10.05;;;;;;;;;;5062745;28;20024;-67
2021/04/02 12:18:00;;;;;;;25.83;13.20;;;;;;;;;;5069543;28;20427;-67
2021/04/02 12:20:25;;;;;;;29.98;14.35;;;;;;;;;;5070258;28;20277;-67
2021/04/02 12:22:50;;;;;;;33.95;18.35;;;;;;;;;;5066877;28;20473;-67
2021/04/02 12:25:16;;;;;;;44.45;23.38;;;;;;;;;;5070193;28;20271;-67
2021/04/02 12:27:41;;;;;;;52.83;26.20;;;;;;;;;;5082107;22;20842;-84
2021/04/02 12:30:08;;;;;;;44.60;25.65;;;;;;;;;;5024995;28;20021;-84
2021/04/02 12:32:33;;;;;;;63.88;30.08;;;;;;;;;;5027032;28;20032;-85
2021/04/02 12:34:59;;;;;;;61.85;30.88;;;;;;;;;;5026055;28;20107;-86
2021/04/02 12:37:25;;;;;;;55.53;29.45;;;;;;;;;;5011842;28;20324;-84
2021/04/02 12:39:50;;;;;;;46.30;23.38;;;;;;;;;;5014086;28;20128;-85
2021/04/02 12:42:15;;;;;;;43.30;22.60;;;;;;;;;;5032431;28;20021;-85
2021/04/02 12:44:40;;;;;;;34.22;19.80;;;;;;;;;;5009891;28;20300;-86
2021/04/02 12:47:05;;;;;;;30.83;17.95;;;;;;;;;;5027384;28;20464;-84
2021/04/02 12:49:31;;;;;;;33.38;17.00;;;;;;;;;;5010295;28;20409;-86
2021/04/02 12:51:56;;;;;;;34.55;18.10;;;;;;;;;;5015720;28;20036;-86
2021/04/02 12:54:21;;;;;;;35.33;16.05;;;;;;;;;;5016170;28;20364;-86
2021/04/02 12:56:47;;;;;;;30.52;16.02;;;;;;;;;;5028398;28;20090;-86
2021/04/02 12:59:12;;;;;;;38.58;17.08;;;;;;;;;;5012726;28;20502;-87
2021/04/02 13:01:38;;;;;;;33.65;17.02;;;;;;;;;;5009255;28;20515;-87
2021/04/02 13:04:03;;;;;;;35.47;17.38;;;;;;;;;;5029121;28;20025;-87
2021/04/02 13:06:28;;;;;;;39.25;18.30;;;;;;;;;;5027230;28;20049;-86
2021/04/02 13:08:54;;;;;;;33.45;17.25;;;;;;;;;;5015786;28;20032;-86
2021/04/02 13:11:21;;;;;;;36.15;16.73;;;;;;;;;;5012170;28;20468;-86
2021/04/02 13:13:46;;;;;;;44.28;20.70;;;;;;;;;;5010727;28;20097;-87
2021/04/02 13:16:12;;;;;;;45.00;22.17;;;;;;;;;;5026085;28;20029;-85
2021/04/02 13:18:37;;;;;;;45.28;24.15;;;;;;;;;;5008867;28;20290;-86
2021/04/02 13:21:02;;;;;;;53.08;28.33;;;;;;;;;;5013666;28;20029;-85
2021/04/02 13:23:30;;;;;;;54.50;29.60;;;;;;;;;;5017353;28;20370;-85
2021/04/02 13:25:56;;;;;;;52.33;28.80;;;;;;;;;;5049411;28;20324;-86
2021/04/02 13:28:21;;;;;;;56.50;30.65;;;;;;;;;;5017492;28;20472;-85
2021/04/02 13:30:47;;;;;;;57.33;30.75;;;;;;;;;;5020021;28;20025;-86
2021/04/02 13:33:13;;;;;;;51.03;28.55;;;;;;;;;;5034871;28;20048;-85
2021/04/02 13:35:38;;;;;;;56.78;29.30;;;;;;;;;;5026802;28;20060;-87
2021/04/02 13:38:03;;;;;;;60.70;27.77;;;;;;;;;;5034140;28;20444;-87
2021/04/02 13:40:29;;;;;;;39.10;17.33;;;;;;;;;;5021031;28;20127;-87
2021/04/02 13:42:54;;;;;;;33.25;17.90;;;;;;;;;;5015674;28;20108;-86
2021/04/02 13:45:19;;;;;;;23.00;11.80;;;;;;;;;;5019061;28;20078;-86
2021/04/02 13:47:46;;;;;;;25.17;12.35;;;;;;;;;;5020674;28;20057;-84
2021/04/02 13:50:22;;;;;;;28.60;15.40;;;;;;;;;;5018637;28;20052;-86
2021/04/02 13:52:47;;;;;;;31.02;14.07;;;;;;;;;;5019414;28;20083;-84
2021/04/02 13:55:13;;;;;;;15.80;8.40;;;;;;;;;;5021643;28;20029;-85
2021/04/02 13:57:39;;;;;;;26.33;8.30;;;;;;;;;;5018613;28;20179;-86
2021/04/02 14:00:05;;;;;;;20.70;8.50;;;;;;;;;;5012959;28;20481;-85
2021/04/02 14:02:30;;;;;;;24.70;11.68;;;;;;;;;;5031154;28;20025;-85
2021/04/02 14:04:56;;;;;;;27.95;11.68;;;;;;;;;;5030073;28;20093;-86
2021/04/02 14:07:21;;;;;;;24.38;14.25;;;;;;;;;;5013723;28;20065;-85
2021/04/02 14:09:47;;;;;;;27.08;14.80;;;;;;;;;;5012007;28;20025;-85
2021/04/02 14:12:12;;;;;;;20.88;12.48;;;;;;;;;;5030827;28;20056;-86
2021/04/02 14:14:37;;;;;;;17.15;7.60;;;;;;;;;;5012414;28;20378;-86